sensor_id;sensor_type;location;lat;lon;timestamp;P1;durP1;ratioP1;P2;durP2;ratioP2
48199;SDS011;33990;44.602;10.976;2022-07-29T00:00:53;6.35;;;4.28;;
48199;SDS011;33990;44.602;10.976;2022-07-29T00:03:21;6.00;;;3.97;;
48199;SDS011;33990;44.602;10.976;2022-07-29T00:05:48;4.55;;;3.90;;
48199;SDS011;33990;44.602;10.976;2022-07-29T00:08:16;7.07;;;4.25;;
48199;SDS011;33990;44.602;10.976;2022-07-29T00:10:43;5.72;;;4.18;;
48199;SDS011;33990;44.602;10.976;2022-07-29T00:13:10;4.82;;;3.85;;
48199;SDS011;33990;44.602;10.976;2022-07-29T00:15:38;5.50;;;4.20;;
48199;SDS011;33990;44.602;10.976;2022-07-29T00:18:05;6.18;;;4.35;;
48199;SDS011;33990;44.602;10.976;2022-07-29T00:20:33;5.28;;;4.63;;
48199;SDS011;33990;44.602;10.976;2022-07-29T00:23:00;6.60;;;4.20;;
48199;SDS011;33990;44.602;10.976;2022-07-29T00:25:27;6.35;;;4.28;;
48199;SDS011;33990;44.602;10.976;2022-07-29T00:27:55;4.97;;;3.85;;
48199;SDS011;33990;44.602;10.976;2022-07-29T00:30:22;5.85;;;4.00;;
48199;SDS011;33990;44.602;10.976;2022-07-29T00:32:49;5.05;;;3.88;;
48199;SDS011;33990;44.602;10.976;2022-07-29T00:35:17;5.25;;;4.03;;
48199;SDS011;33990;44.602;10.976;2022-07-29T00:38:02;4.82;;;3.88;;
48199;SDS011;33990;44.602;10.976;2022-07-29T00:40:30;6.65;;;4.63;;
48199;SDS011;33990;44.602;10.976;2022-07-29T00:42:57;5.75;;;4.05;;
48199;SDS011;33990;44.602;10.976;2022-07-29T00:45:28;5.30;;;4.35;;
48199;SDS011;33990;44.602;10.976;2022-07-29T00:47:56;6.03;;;4.28;;
48199;SDS011;33990;44.602;10.976;2022-07-29T00:50:24;6.35;;;4.28;;
48199;SDS011;33990;44.602;10.976;2022-07-29T00:52:52;5.95;;;4.13;;
48199;SDS011;33990;44.602;10.976;2022-07-29T00:55:20;4.70;;;4.05;;
48199;SDS011;33990;44.602;10.976;2022-07-29T00:57:47;4.47;;;3.63;;
48199;SDS011;33990;44.602;10.976;2022-07-29T01:00:16;4.68;;;4.20;;
48199;SDS011;33990;44.602;10.976;2022-07-29T01:02:48;6.40;;;4.35;;
48199;SDS011;33990;44.602;10.976;2022-07-29T01:05:16;5.45;;;3.70;;
48199;SDS011;33990;44.602;10.976;2022-07-29T01:07:46;5.38;;;4.25;;
48199;SDS011;33990;44.602;10.976;2022-07-29T01:10:15;5.43;;;4.25;;
48199;SDS011;33990;44.602;10.976;2022-07-29T01:12:43;5.35;;;3.63;;
48199;SDS011;33990;44.602;10.976;2022-07-29T01:15:12;5.22;;;4.10;;
48199;SDS011;33990;44.602;10.976;2022-07-29T01:37:57;5.28;;;4.78;;
48199;SDS011;33990;44.602;10.976;2022-07-29T01:43:38;4.88;;;4.38;;
48199;SDS011;33990;44.602;10.976;2022-07-29T01:46:14;5.18;;;4.63;;
48199;SDS011;33990;44.602;10.976;2022-07-29T01:48:47;5.72;;;4.53;;
48199;SDS011;33990;44.602;10.976;2022-07-29T01:51:20;5.68;;;4.60;;
48199;SDS011;33990;44.602;10.976;2022-07-29T01:56:46;5.55;;;4.95;;
48199;SDS011;33990;44.602;10.976;2022-07-29T01:59:18;4.63;;;4.13;;
48199;SDS011;33990;44.602;10.976;2022-07-29T02:01:47;5.88;;;4.15;;
48199;SDS011;33990;44.602;10.976;2022-07-29T02:04:20;4.43;;;4.03;;
48199;SDS011;33990;44.602;10.976;2022-07-29T02:06:57;4.50;;;4.07;;
48199;SDS011;33990;44.602;10.976;2022-07-29T02:09:29;5.70;;;4.47;;
48199;SDS011;33990;44.602;10.976;2022-07-29T02:11:59;6.38;;;4.90;;
48199;SDS011;33990;44.602;10.976;2022-07-29T02:14:29;5.28;;;4.75;;
48199;SDS011;33990;44.602;10.976;2022-07-29T02:17:00;5.22;;;4.55;;
48199;SDS011;33990;44.602;10.976;2022-07-29T02:19:29;6.15;;;4.22;;
48199;SDS011;33990;44.602;10.976;2022-07-29T02:22:00;6.15;;;4.57;;
48199;SDS011;33990;44.602;10.976;2022-07-29T02:24:28;6.60;;;4.75;;
48199;SDS011;33990;44.602;10.976;2022-07-29T02:26:57;5.50;;;4.47;;
48199;SDS011;33990;44.602;10.976;2022-07-29T02:29:27;5.57;;;4.50;;
48199;SDS011;33990;44.602;10.976;2022-07-29T02:31:57;5.68;;;4.43;;
48199;SDS011;33990;44.602;10.976;2022-07-29T02:34:26;5.57;;;4.75;;
48199;SDS011;33990;44.602;10.976;2022-07-29T02:36:55;4.93;;;4.43;;
48199;SDS011;33990;44.602;10.976;2022-07-29T02:39:22;4.78;;;4.03;;
48199;SDS011;33990;44.602;10.976;2022-07-29T02:41:58;4.88;;;4.43;;
48199;SDS011;33990;44.602;10.976;2022-07-29T02:44:30;4.88;;;4.30;;
48199;SDS011;33990;44.602;10.976;2022-07-29T02:47:07;4.63;;;3.97;;
48199;SDS011;33990;44.602;10.976;2022-07-29T02:49:43;6.65;;;4.28;;
48199;SDS011;33990;44.602;10.976;2022-07-29T02:57:35;6.75;;;4.95;;
48199;SDS011;33990;44.602;10.976;2022-07-29T03:00:21;5.25;;;4.35;;
48199;SDS011;33990;44.602;10.976;2022-07-29T03:05:25;5.43;;;4.32;;
48199;SDS011;33990;44.602;10.976;2022-07-29T03:08:03;6.55;;;4.65;;
48199;SDS011;33990;44.602;10.976;2022-07-29T03:10:32;4.88;;;4.38;;
48199;SDS011;33990;44.602;10.976;2022-07-29T03:13:00;6.13;;;4.18;;
48199;SDS011;33990;44.602;10.976;2022-07-29T03:15:28;5.53;;;4.25;;
48199;SDS011;33990;44.602;10.976;2022-07-29T03:17:59;5.30;;;4.80;;
48199;SDS011;33990;44.602;10.976;2022-07-29T03:20:27;5.63;;;4.30;;
48199;SDS011;33990;44.602;10.976;2022-07-29T03:22:54;6.00;;;4.38;;
48199;SDS011;33990;44.602;10.976;2022-07-29T03:25:22;6.47;;;4.93;;
48199;SDS011;33990;44.602;10.976;2022-07-29T03:27:49;4.70;;;4.20;;
48199;SDS011;33990;44.602;10.976;2022-07-29T03:30:16;6.55;;;4.70;;
48199;SDS011;33990;44.602;10.976;2022-07-29T03:32:48;6.65;;;4.78;;
48199;SDS011;33990;44.602;10.976;2022-07-29T03:35:19;6.30;;;4.53;;
48199;SDS011;33990;44.602;10.976;2022-07-29T03:37:47;7.38;;;5.50;;
48199;SDS011;33990;44.602;10.976;2022-07-29T03:40:19;5.20;;;4.60;;
48199;SDS011;33990;44.602;10.976;2022-07-29T03:42:52;5.82;;;4.10;;
48199;SDS011;33990;44.602;10.976;2022-07-29T03:45:22;8.15;;;5.10;;
48199;SDS011;33990;44.602;10.976;2022-07-29T03:47:55;6.05;;;5.25;;
48199;SDS011;33990;44.602;10.976;2022-07-29T03:50:30;6.32;;;5.00;;
48199;SDS011;33990;44.602;10.976;2022-07-29T03:53:00;5.78;;;5.00;;
48199;SDS011;33990;44.602;10.976;2022-07-29T03:55:29;6.72;;;5.30;;
48199;SDS011;33990;44.602;10.976;2022-07-29T03:58:03;8.38;;;5.13;;
48199;SDS011;33990;44.602;10.976;2022-07-29T04:00:31;6.60;;;5.53;;
48199;SDS011;33990;44.602;10.976;2022-07-29T04:03:00;7.28;;;5.72;;
48199;SDS011;33990;44.602;10.976;2022-07-29T04:05:28;6.97;;;6.28;;
48199;SDS011;33990;44.602;10.976;2022-07-29T04:07:56;8.98;;;6.78;;
48199;SDS011;33990;44.602;10.976;2022-07-29T04:10:23;8.05;;;5.97;;
48199;SDS011;33990;44.602;10.976;2022-07-29T04:12:58;7.63;;;5.93;;
48199;SDS011;33990;44.602;10.976;2022-07-29T04:15:26;7.00;;;6.30;;
48199;SDS011;33990;44.602;10.976;2022-07-29T04:17:58;6.45;;;5.65;;
48199;SDS011;33990;44.602;10.976;2022-07-29T04:20:25;6.93;;;5.95;;
48199;SDS011;33990;44.602;10.976;2022-07-29T04:22:53;6.32;;;5.72;;
48199;SDS011;33990;44.602;10.976;2022-07-29T04:25:20;8.15;;;6.63;;
48199;SDS011;33990;44.602;10.976;2022-07-29T04:27:47;8.82;;;7.45;;
48199;SDS011;33990;44.602;10.976;2022-07-29T04:30:27;6.45;;;5.72;;
48199;SDS011;33990;44.602;10.976;2022-07-29T04:32:55;9.05;;;6.03;;
48199;SDS011;33990;44.602;10.976;2022-07-29T04:35:22;7.13;;;5.72;;
48199;SDS011;33990;44.602;10.976;2022-07-29T04:37:50;6.78;;;5.28;;
48199;SDS011;33990;44.602;10.976;2022-07-29T04:40:17;8.73;;;6.25;;
48199;SDS011;33990;44.602;10.976;2022-07-29T04:42:44;6.60;;;5.82;;
48199;SDS011;33990;44.602;10.976;2022-07-29T04:45:13;6.63;;;5.13;;
48199;SDS011;33990;44.602;10.976;2022-07-29T04:47:42;6.88;;;5.68;;
48199;SDS011;33990;44.602;10.976;2022-07-29T04:50:09;9.23;;;5.53;;
48199;SDS011;33990;44.602;10.976;2022-07-29T04:52:37;7.05;;;5.25;;
48199;SDS011;33990;44.602;10.976;2022-07-29T04:55:05;6.80;;;5.65;;
48199;SDS011;33990;44.602;10.976;2022-07-29T04:57:32;7.35;;;5.97;;
48199;SDS011;33990;44.602;10.976;2022-07-29T05:00:00;8.50;;;6.05;;
48199;SDS011;33990;44.602;10.976;2022-07-29T05:02:27;8.63;;;5.32;;
48199;SDS011;33990;44.602;10.976;2022-07-29T05:04:55;6.03;;;4.75;;
48199;SDS011;33990;44.602;10.976;2022-07-29T05:07:22;5.70;;;5.15;;
48199;SDS011;33990;44.602;10.976;2022-07-29T05:09:49;7.15;;;4.72;;
48199;SDS011;33990;44.602;10.976;2022-07-29T05:12:17;7.07;;;5.25;;
48199;SDS011;33990;44.602;10.976;2022-07-29T05:14:44;5.75;;;5.10;;
48199;SDS011;33990;44.602;10.976;2022-07-29T05:17:12;7.72;;;5.63;;
48199;SDS011;33990;44.602;10.976;2022-07-29T05:19:39;6.72;;;4.70;;
48199;SDS011;33990;44.602;10.976;2022-07-29T05:22:06;6.22;;;4.97;;
48199;SDS011;33990;44.602;10.976;2022-07-29T05:24:34;7.43;;;5.30;;
48199;SDS011;33990;44.602;10.976;2022-07-29T05:27:01;8.70;;;5.32;;
48199;SDS011;33990;44.602;10.976;2022-07-29T05:29:28;7.97;;;5.45;;
48199;SDS011;33990;44.602;10.976;2022-07-29T05:32:11;9.00;;;5.20;;
48199;SDS011;33990;44.602;10.976;2022-07-29T05:34:39;8.95;;;5.40;;
48199;SDS011;33990;44.602;10.976;2022-07-29T05:37:20;6.50;;;5.55;;
48199;SDS011;33990;44.602;10.976;2022-07-29T05:39:47;6.40;;;5.72;;
48199;SDS011;33990;44.602;10.976;2022-07-29T05:42:23;7.78;;;6.18;;
48199;SDS011;33990;44.602;10.976;2022-07-29T05:44:51;7.50;;;5.82;;
48199;SDS011;33990;44.602;10.976;2022-07-29T05:47:19;8.10;;;5.72;;
48199;SDS011;33990;44.602;10.976;2022-07-29T05:49:46;6.07;;;4.97;;
48199;SDS011;33990;44.602;10.976;2022-07-29T05:52:14;8.13;;;6.10;;
48199;SDS011;33990;44.602;10.976;2022-07-29T05:54:42;7.43;;;6.30;;
48199;SDS011;33990;44.602;10.976;2022-07-29T05:57:19;8.00;;;5.43;;
48199;SDS011;33990;44.602;10.976;2022-07-29T05:59:48;7.05;;;6.18;;
48199;SDS011;33990;44.602;10.976;2022-07-29T06:02:16;8.15;;;6.88;;
48199;SDS011;33990;44.602;10.976;2022-07-29T06:04:44;6.18;;;5.57;;
48199;SDS011;33990;44.602;10.976;2022-07-29T06:07:12;6.38;;;5.78;;
48199;SDS011;33990;44.602;10.976;2022-07-29T06:09:39;8.70;;;6.40;;
48199;SDS011;33990;44.602;10.976;2022-07-29T06:12:06;8.07;;;6.60;;
48199;SDS011;33990;44.602;10.976;2022-07-29T06:14:34;8.75;;;6.28;;
48199;SDS011;33990;44.602;10.976;2022-07-29T06:17:02;7.13;;;6.22;;
48199;SDS011;33990;44.602;10.976;2022-07-29T06:19:29;7.15;;;6.45;;
48199;SDS011;33990;44.602;10.976;2022-07-29T06:21:57;9.68;;;6.63;;
48199;SDS011;33990;44.602;10.976;2022-07-29T06:24:24;11.88;;;7.00;;
48199;SDS011;33990;44.602;10.976;2022-07-29T06:26:52;8.98;;;7.07;;
48199;SDS011;33990;44.602;10.976;2022-07-29T06:29:19;8.80;;;7.38;;
48199;SDS011;33990;44.602;10.976;2022-07-29T06:31:47;8.43;;;7.13;;
48199;SDS011;33990;44.602;10.976;2022-07-29T06:34:14;8.20;;;7.15;;
48199;SDS011;33990;44.602;10.976;2022-07-29T06:36:43;7.72;;;6.07;;
48199;SDS011;33990;44.602;10.976;2022-07-29T06:39:11;10.68;;;8.98;;
48199;SDS011;33990;44.602;10.976;2022-07-29T06:41:39;8.95;;;6.93;;
48199;SDS011;33990;44.602;10.976;2022-07-29T06:44:09;12.32;;;10.43;;
48199;SDS011;33990;44.602;10.976;2022-07-29T06:46:36;13.60;;;12.13;;
48199;SDS011;33990;44.602;10.976;2022-07-29T06:49:04;12.38;;;11.07;;
48199;SDS011;33990;44.602;10.976;2022-07-29T06:51:31;12.63;;;10.20;;
48199;SDS011;33990;44.602;10.976;2022-07-29T06:53:59;11.23;;;10.05;;
48199;SDS011;33990;44.602;10.976;2022-07-29T06:56:30;11.20;;;9.20;;
48199;SDS011;33990;44.602;10.976;2022-07-29T06:59:08;9.30;;;8.07;;
48199;SDS011;33990;44.602;10.976;2022-07-29T07:01:38;10.60;;;8.50;;
48199;SDS011;33990;44.602;10.976;2022-07-29T07:04:07;12.85;;;10.43;;
48199;SDS011;33990;44.602;10.976;2022-07-29T07:06:36;11.55;;;10.25;;
48199;SDS011;33990;44.602;10.976;2022-07-29T07:09:03;10.60;;;9.50;;
48199;SDS011;33990;44.602;10.976;2022-07-29T07:11:31;11.82;;;10.65;;
48199;SDS011;33990;44.602;10.976;2022-07-29T07:13:58;14.60;;;11.13;;
48199;SDS011;33990;44.602;10.976;2022-07-29T07:16:30;10.75;;;8.65;;
48199;SDS011;33990;44.602;10.976;2022-07-29T07:18:59;11.23;;;9.23;;
48199;SDS011;33990;44.602;10.976;2022-07-29T07:21:26;10.68;;;7.85;;
48199;SDS011;33990;44.602;10.976;2022-07-29T07:23:56;8.85;;;7.95;;
48199;SDS011;33990;44.602;10.976;2022-07-29T07:26:24;8.43;;;7.28;;
48199;SDS011;33990;44.602;10.976;2022-07-29T07:28:52;8.50;;;7.60;;
48199;SDS011;33990;44.602;10.976;2022-07-29T07:31:23;10.23;;;8.45;;
48199;SDS011;33990;44.602;10.976;2022-07-29T07:33:50;10.63;;;7.75;;
48199;SDS011;33990;44.602;10.976;2022-07-29T07:36:19;8.70;;;7.80;;
48199;SDS011;33990;44.602;10.976;2022-07-29T07:38:46;11.73;;;10.13;;
48199;SDS011;33990;44.602;10.976;2022-07-29T07:41:13;11.07;;;8.90;;
48199;SDS011;33990;44.602;10.976;2022-07-29T07:43:41;9.90;;;7.63;;
48199;SDS011;33990;44.602;10.976;2022-07-29T07:46:08;8.63;;;6.35;;
48199;SDS011;33990;44.602;10.976;2022-07-29T07:48:35;8.38;;;7.28;;
48199;SDS011;33990;44.602;10.976;2022-07-29T07:51:03;9.50;;;6.32;;
48199;SDS011;33990;44.602;10.976;2022-07-29T07:53:30;7.57;;;6.05;;
48199;SDS011;33990;44.602;10.976;2022-07-29T07:55:58;9.57;;;7.03;;
48199;SDS011;33990;44.602;10.976;2022-07-29T07:58:37;6.72;;;6.13;;
48199;SDS011;33990;44.602;10.976;2022-07-29T08:01:05;8.90;;;6.85;;
48199;SDS011;33990;44.602;10.976;2022-07-29T08:03:33;8.07;;;6.43;;
48199;SDS011;33990;44.602;10.976;2022-07-29T08:06:01;7.18;;;6.22;;
48199;SDS011;33990;44.602;10.976;2022-07-29T08:08:29;6.97;;;5.80;;
48199;SDS011;33990;44.602;10.976;2022-07-29T08:10:56;6.82;;;5.82;;
48199;SDS011;33990;44.602;10.976;2022-07-29T08:13:25;7.53;;;6.10;;
48199;SDS011;33990;44.602;10.976;2022-07-29T08:15:55;6.88;;;6.22;;
48199;SDS011;33990;44.602;10.976;2022-07-29T08:20:55;7.05;;;6.35;;
48199;SDS011;33990;44.602;10.976;2022-07-29T08:23:23;8.23;;;7.43;;
48199;SDS011;33990;44.602;10.976;2022-07-29T08:25:51;13.50;;;7.45;;
48199;SDS011;33990;44.602;10.976;2022-07-29T08:28:20;8.50;;;7.30;;
48199;SDS011;33990;44.602;10.976;2022-07-29T08:30:52;8.23;;;7.43;;
48199;SDS011;33990;44.602;10.976;2022-07-29T08:33:19;8.07;;;7.10;;
48199;SDS011;33990;44.602;10.976;2022-07-29T08:35:46;9.60;;;6.38;;
48199;SDS011;33990;44.602;10.976;2022-07-29T08:38:14;6.97;;;6.15;;
48199;SDS011;33990;44.602;10.976;2022-07-29T08:40:41;5.53;;;5.03;;
48199;SDS011;33990;44.602;10.976;2022-07-29T08:43:08;7.43;;;5.80;;
48199;SDS011;33990;44.602;10.976;2022-07-29T08:45:41;9.02;;;5.63;;
48199;SDS011;33990;44.602;10.976;2022-07-29T08:48:13;7.32;;;5.55;;
48199;SDS011;33990;44.602;10.976;2022-07-29T08:50:42;10.05;;;5.55;;
48199;SDS011;33990;44.602;10.976;2022-07-29T08:53:13;9.75;;;6.93;;
48199;SDS011;33990;44.602;10.976;2022-07-29T08:55:46;9.68;;;6.63;;
48199;SDS011;33990;44.602;10.976;2022-07-29T08:58:15;7.65;;;5.82;;
48199;SDS011;33990;44.602;10.976;2022-07-29T09:00:50;5.93;;;5.25;;
48199;SDS011;33990;44.602;10.976;2022-07-29T09:03:25;6.30;;;5.70;;
48199;SDS011;33990;44.602;10.976;2022-07-29T09:05:58;8.10;;;5.97;;
48199;SDS011;33990;44.602;10.976;2022-07-29T09:08:26;8.50;;;5.38;;
48199;SDS011;33990;44.602;10.976;2022-07-29T09:10:54;9.40;;;5.60;;
48199;SDS011;33990;44.602;10.976;2022-07-29T09:13:22;7.05;;;5.65;;
48199;SDS011;33990;44.602;10.976;2022-07-29T09:15:50;5.82;;;5.22;;
48199;SDS011;33990;44.602;10.976;2022-07-29T09:21:04;6.03;;;5.03;;
48199;SDS011;33990;44.602;10.976;2022-07-29T09:24:00;7.10;;;4.95;;
48199;SDS011;33990;44.602;10.976;2022-07-29T09:26:38;7.25;;;5.18;;
48199;SDS011;33990;44.602;10.976;2022-07-29T09:29:10;5.50;;;4.88;;
48199;SDS011;33990;44.602;10.976;2022-07-29T09:31:50;7.45;;;5.32;;
48199;SDS011;33990;44.602;10.976;2022-07-29T09:34:23;7.03;;;4.93;;
48199;SDS011;33990;44.602;10.976;2022-07-29T09:36:54;6.00;;;4.47;;
48199;SDS011;33990;44.602;10.976;2022-07-29T09:39:41;7.93;;;5.15;;
48199;SDS011;33990;44.602;10.976;2022-07-29T09:42:13;7.32;;;5.03;;
48199;SDS011;33990;44.602;10.976;2022-07-29T09:44:43;6.88;;;4.78;;
48199;SDS011;33990;44.602;10.976;2022-07-29T09:47:12;6.38;;;5.20;;
48199;SDS011;33990;44.602;10.976;2022-07-29T09:52:17;8.05;;;4.97;;
48199;SDS011;33990;44.602;10.976;2022-07-29T09:54:44;6.38;;;4.85;;
48199;SDS011;33990;44.602;10.976;2022-07-29T09:57:25;6.55;;;4.90;;
48199;SDS011;33990;44.602;10.976;2022-07-29T10:02:38;5.18;;;4.63;;
48199;SDS011;33990;44.602;10.976;2022-07-29T10:05:21;6.38;;;4.85;;
48199;SDS011;33990;44.602;10.976;2022-07-29T10:07:54;8.52;;;5.38;;
48199;SDS011;33990;44.602;10.976;2022-07-29T10:15:26;6.13;;;5.05;;
48199;SDS011;33990;44.602;10.976;2022-07-29T10:17:57;5.60;;;4.88;;
48199;SDS011;33990;44.602;10.976;2022-07-29T10:20:26;6.78;;;5.55;;
48199;SDS011;33990;44.602;10.976;2022-07-29T10:22:54;6.28;;;5.68;;
48199;SDS011;33990;44.602;10.976;2022-07-29T10:25:22;6.60;;;5.07;;
48199;SDS011;33990;44.602;10.976;2022-07-29T10:27:51;6.65;;;5.68;;
48199;SDS011;33990;44.602;10.976;2022-07-29T10:30:20;6.43;;;4.97;;
48199;SDS011;33990;44.602;10.976;2022-07-29T10:44:17;7.60;;;4.90;;
48199;SDS011;33990;44.602;10.976;2022-07-29T10:46:49;6.97;;;4.95;;
48199;SDS011;33990;44.602;10.976;2022-07-29T10:49:19;5.22;;;4.50;;
48199;SDS011;33990;44.602;10.976;2022-07-29T11:02:41;6.00;;;4.93;;
48199;SDS011;33990;44.602;10.976;2022-07-29T11:05:14;6.22;;;5.07;;
48199;SDS011;33990;44.602;10.976;2022-07-29T11:10:49;6.47;;;5.32;;
48199;SDS011;33990;44.602;10.976;2022-07-29T11:16:08;7.47;;;4.95;;
48199;SDS011;33990;44.602;10.976;2022-07-29T11:19:12;7.43;;;4.72;;
48199;SDS011;33990;44.602;10.976;2022-07-29T11:21:43;5.22;;;4.60;;
48199;SDS011;33990;44.602;10.976;2022-07-29T11:24:22;6.07;;;5.47;;
48199;SDS011;33990;44.602;10.976;2022-07-29T11:29:49;5.93;;;5.18;;
48199;SDS011;33990;44.602;10.976;2022-07-29T11:32:19;5.15;;;4.53;;
48199;SDS011;33990;44.602;10.976;2022-07-29T11:43:52;5.28;;;4.78;;
48199;SDS011;33990;44.602;10.976;2022-07-29T11:49:19;5.50;;;5.00;;
48199;SDS011;33990;44.602;10.976;2022-07-29T11:51:59;5.85;;;4.75;;
48199;SDS011;33990;44.602;10.976;2022-07-29T11:54:31;6.40;;;5.07;;
48199;SDS011;33990;44.602;10.976;2022-07-29T11:57:20;6.72;;;4.72;;
48199;SDS011;33990;44.602;10.976;2022-07-29T11:59:48;5.40;;;4.68;;
48199;SDS011;33990;44.602;10.976;2022-07-29T12:02:16;5.38;;;4.90;;
48199;SDS011;33990;44.602;10.976;2022-07-29T12:05:03;4.95;;;4.45;;
48199;SDS011;33990;44.602;10.976;2022-07-29T12:07:37;5.20;;;4.72;;
48199;SDS011;33990;44.602;10.976;2022-07-29T12:10:07;5.97;;;5.38;;
48199;SDS011;33990;44.602;10.976;2022-07-29T12:12:55;5.75;;;5.20;;
48199;SDS011;33990;44.602;10.976;2022-07-29T12:15:22;5.07;;;4.32;;
48199;SDS011;33990;44.602;10.976;2022-07-29T12:18:15;5.43;;;4.93;;
48199;SDS011;33990;44.602;10.976;2022-07-29T12:20:45;5.10;;;4.60;;
48199;SDS011;33990;44.602;10.976;2022-07-29T12:23:15;5.22;;;4.72;;
48199;SDS011;33990;44.602;10.976;2022-07-29T12:25:44;5.28;;;4.38;;
48199;SDS011;33990;44.602;10.976;2022-07-29T12:28:16;5.15;;;4.55;;
48199;SDS011;33990;44.602;10.976;2022-07-29T12:30:53;5.57;;;4.97;;
48199;SDS011;33990;44.602;10.976;2022-07-29T12:33:22;5.47;;;4.97;;
48199;SDS011;33990;44.602;10.976;2022-07-29T12:35:51;4.93;;;4.45;;
48199;SDS011;33990;44.602;10.976;2022-07-29T12:38:34;5.00;;;4.50;;
48199;SDS011;33990;44.602;10.976;2022-07-29T12:41:02;5.00;;;4.50;;
48199;SDS011;33990;44.602;10.976;2022-07-29T12:43:31;4.78;;;4.22;;
48199;SDS011;33990;44.602;10.976;2022-07-29T12:46:00;5.03;;;4.47;;
48199;SDS011;33990;44.602;10.976;2022-07-29T12:48:43;5.65;;;4.57;;
48199;SDS011;33990;44.602;10.976;2022-07-29T12:51:11;5.30;;;4.47;;
48199;SDS011;33990;44.602;10.976;2022-07-29T12:53:41;5.35;;;4.85;;
48199;SDS011;33990;44.602;10.976;2022-07-29T12:56:30;4.95;;;4.18;;
48199;SDS011;33990;44.602;10.976;2022-07-29T13:01:40;4.60;;;4.20;;
48199;SDS011;33990;44.602;10.976;2022-07-29T13:04:07;4.65;;;4.18;;
48199;SDS011;33990;44.602;10.976;2022-07-29T13:06:42;5.10;;;4.50;;
48199;SDS011;33990;44.602;10.976;2022-07-29T13:09:19;4.43;;;4.03;;
48199;SDS011;33990;44.602;10.976;2022-07-29T13:11:50;5.15;;;4.70;;
48199;SDS011;33990;44.602;10.976;2022-07-29T13:19:36;4.82;;;4.30;;
48199;SDS011;33990;44.602;10.976;2022-07-29T13:22:07;5.28;;;4.43;;
48199;SDS011;33990;44.602;10.976;2022-07-29T13:27:16;6.25;;;4.43;;
48199;SDS011;33990;44.602;10.976;2022-07-29T13:29:45;5.05;;;4.55;;
48199;SDS011;33990;44.602;10.976;2022-07-29T13:32:13;4.75;;;4.03;;
48199;SDS011;33990;44.602;10.976;2022-07-29T13:34:41;5.20;;;4.32;;
48199;SDS011;33990;44.602;10.976;2022-07-29T13:37:08;4.95;;;4.53;;
48199;SDS011;33990;44.602;10.976;2022-07-29T13:39:36;4.68;;;4.18;;
48199;SDS011;33990;44.602;10.976;2022-07-29T13:42:04;5.63;;;4.38;;
48199;SDS011;33990;44.602;10.976;2022-07-29T13:44:36;4.90;;;4.20;;
48199;SDS011;33990;44.602;10.976;2022-07-29T13:47:05;4.93;;;4.32;;
48199;SDS011;33990;44.602;10.976;2022-07-29T13:49:34;5.15;;;4.60;;
48199;SDS011;33990;44.602;10.976;2022-07-29T13:52:02;5.00;;;4.50;;
48199;SDS011;33990;44.602;10.976;2022-07-29T13:54:30;5.47;;;4.55;;
48199;SDS011;33990;44.602;10.976;2022-07-29T13:57:11;4.90;;;4.40;;
48199;SDS011;33990;44.602;10.976;2022-07-29T13:59:40;4.65;;;4.18;;
48199;SDS011;33990;44.602;10.976;2022-07-29T14:02:09;6.65;;;4.60;;
48199;SDS011;33990;44.602;10.976;2022-07-29T14:04:37;5.05;;;4.38;;
48199;SDS011;33990;44.602;10.976;2022-07-29T14:07:05;4.13;;;3.72;;
48199;SDS011;33990;44.602;10.976;2022-07-29T14:09:33;5.28;;;4.78;;
48199;SDS011;33990;44.602;10.976;2022-07-29T14:12:08;5.22;;;4.63;;
48199;SDS011;33990;44.602;10.976;2022-07-29T14:14:35;5.18;;;4.63;;
48199;SDS011;33990;44.602;10.976;2022-07-29T14:17:03;4.47;;;4.07;;
48199;SDS011;33990;44.602;10.976;2022-07-29T14:19:34;4.43;;;4.00;;
48199;SDS011;33990;44.602;10.976;2022-07-29T14:22:06;5.35;;;4.57;;
48199;SDS011;33990;44.602;10.976;2022-07-29T14:24:35;5.68;;;4.72;;
48199;SDS011;33990;44.602;10.976;2022-07-29T14:27:04;5.25;;;4.75;;
48199;SDS011;33990;44.602;10.976;2022-07-29T14:29:32;6.15;;;4.40;;
48199;SDS011;33990;44.602;10.976;2022-07-29T14:32:07;5.27;;;4.37;;
48199;SDS011;33990;44.602;10.976;2022-07-29T14:34:37;4.75;;;4.25;;
48199;SDS011;33990;44.602;10.976;2022-07-29T14:37:05;4.22;;;3.88;;
48199;SDS011;33990;44.602;10.976;2022-07-29T14:39:34;4.90;;;4.40;;
48199;SDS011;33990;44.602;10.976;2022-07-29T14:42:09;5.07;;;4.20;;
48199;SDS011;33990;44.602;10.976;2022-07-29T14:44:39;4.63;;;4.22;;
48199;SDS011;33990;44.602;10.976;2022-07-29T14:47:08;4.70;;;4.30;;
48199;SDS011;33990;44.602;10.976;2022-07-29T14:49:36;5.03;;;4.53;;
48199;SDS011;33990;44.602;10.976;2022-07-29T14:52:03;4.63;;;4.22;;
48199;SDS011;33990;44.602;10.976;2022-07-29T14:54:31;4.55;;;4.05;;
48199;SDS011;33990;44.602;10.976;2022-07-29T14:56:58;4.68;;;4.18;;
48199;SDS011;33990;44.602;10.976;2022-07-29T14:59:25;5.88;;;4.43;;
48199;SDS011;33990;44.602;10.976;2022-07-29T15:01:54;4.53;;;4.13;;
48199;SDS011;33990;44.602;10.976;2022-07-29T15:04:22;4.20;;;3.80;;
48199;SDS011;33990;44.602;10.976;2022-07-29T15:06:50;5.60;;;4.22;;
48199;SDS011;33990;44.602;10.976;2022-07-29T15:09:17;4.68;;;4.28;;
48199;SDS011;33990;44.602;10.976;2022-07-29T15:11:44;5.22;;;3.80;;
48199;SDS011;33990;44.602;10.976;2022-07-29T15:14:12;4.90;;;4.28;;
48199;SDS011;33990;44.602;10.976;2022-07-29T15:16:39;4.45;;;4.05;;
48199;SDS011;33990;44.602;10.976;2022-07-29T15:19:13;4.82;;;4.32;;
48199;SDS011;33990;44.602;10.976;2022-07-29T15:21:41;4.28;;;3.88;;
48199;SDS011;33990;44.602;10.976;2022-07-29T15:24:25;5.05;;;3.70;;
48199;SDS011;33990;44.602;10.976;2022-07-29T15:26:53;4.40;;;4.00;;
48199;SDS011;33990;44.602;10.976;2022-07-29T15:29:21;4.38;;;3.97;;
48199;SDS011;33990;44.602;10.976;2022-07-29T15:31:49;4.40;;;3.97;;
48199;SDS011;33990;44.602;10.976;2022-07-29T15:34:16;4.78;;;4.28;;
48199;SDS011;33990;44.602;10.976;2022-07-29T15:36:44;4.85;;;3.97;;
48199;SDS011;33990;44.602;10.976;2022-07-29T15:39:20;4.47;;;4.07;;
48199;SDS011;33990;44.602;10.976;2022-07-29T15:41:48;6.00;;;4.28;;
48199;SDS011;33990;44.602;10.976;2022-07-29T15:44:16;4.10;;;3.70;;
48199;SDS011;33990;44.602;10.976;2022-07-29T15:46:44;5.28;;;4.20;;
48199;SDS011;33990;44.602;10.976;2022-07-29T15:49:33;4.50;;;3.97;;
48199;SDS011;33990;44.602;10.976;2022-07-29T15:52:16;5.90;;;4.55;;
48199;SDS011;33990;44.602;10.976;2022-07-29T15:54:55;4.47;;;3.90;;
48199;SDS011;33990;44.602;10.976;2022-07-29T15:57:23;4.97;;;4.47;;
48199;SDS011;33990;44.602;10.976;2022-07-29T15:59:51;5.75;;;4.35;;
48199;SDS011;33990;44.602;10.976;2022-07-29T16:02:19;5.13;;;4.13;;
48199;SDS011;33990;44.602;10.976;2022-07-29T16:04:46;6.03;;;4.80;;
48199;SDS011;33990;44.602;10.976;2022-07-29T16:07:14;4.57;;;4.18;;
48199;SDS011;33990;44.602;10.976;2022-07-29T16:09:42;7.22;;;4.05;;
48199;SDS011;33990;44.602;10.976;2022-07-29T16:12:16;6.10;;;3.92;;
48199;SDS011;33990;44.602;10.976;2022-07-29T16:14:47;4.68;;;4.18;;
48199;SDS011;33990;44.602;10.976;2022-07-29T16:17:17;5.10;;;4.15;;
48199;SDS011;33990;44.602;10.976;2022-07-29T16:19:45;5.22;;;4.25;;
48199;SDS011;33990;44.602;10.976;2022-07-29T16:22:12;5.03;;;4.18;;
48199;SDS011;33990;44.602;10.976;2022-07-29T16:24:40;4.47;;;3.92;;
48199;SDS011;33990;44.602;10.976;2022-07-29T16:27:07;4.80;;;3.67;;
48199;SDS011;33990;44.602;10.976;2022-07-29T16:29:35;4.80;;;4.18;;
48199;SDS011;33990;44.602;10.976;2022-07-29T16:32:03;6.00;;;4.00;;
48199;SDS011;33990;44.602;10.976;2022-07-29T16:34:32;6.15;;;4.38;;